Time;durP1;ratioP1;P1;durP2;ratioP2;P2;SDS_P1;SDS_P2;PMS_P1;PMS_P2;Temp;Humidity;BMP_temperature;BMP_pressure;BME280_temperature;BME280_humidity;BME280_pressure;Samples;Min_cycle;Max_cycle;Signal;HPM_P1;HPM_P2
2022/01/30 00:02:15;;;;;;;;;4.25;4.25;;;;;11.08;76.18;102830.91;5039213;28;45906;-74
2022/01/30 00:04:41;;;;;;;;;5.75;4.25;;;;;11.03;76.52;102831.88;5056961;28;46211;-74
2022/01/30 00:07:06;;;;;;;;;4.75;3.25;;;;;10.97;76.24;102844.47;5039024;28;45407;-74
2022/01/30 00:09:32;;;;;;;;;6.00;3.00;;;;;10.94;76.11;102828.44;5039129;28;45354;-72
2022/01/30 00:12:01;;;;;;;;;3.00;3.00;;;;;10.98;76.28;102824.78;5038957;28;46130;-72
2022/01/30 00:14:29;;;;;;;;;4.00;3.75;;;;;10.92;76.33;102813.25;5038707;28;47596;-74
2022/01/30 00:17:00;;;;;;;;;4.25;4.25;;;;;11.00;76.63;102835.50;5038918;28;45403;-74
2022/01/30 00:19:36;;;;;;;;;4.00;4.00;;;;;11.00;76.50;102832.81;5057008;28;45358;-72
2022/01/30 00:22:16;;;;;;;;;4.00;3.50;;;;;10.95;76.60;102827.53;5047766;28;45342;-73
2022/01/30 00:27:16;;;;;;;;;4.00;4.00;;;;;10.93;76.65;102828.44;5056719;28;45463;-74
2022/01/30 00:29:41;;;;;;;;;7.50;4.00;;;;;10.90;76.65;102820.41;5039002;28;45464;-74
2022/01/30 05:33:40;;;;;;;;;1.50;1.25;;;;;11.26;56.18;102829.72;5030724;28;45276;-55
2022/01/30 05:36:07;;;;;;;;;3.00;1.00;;;;;11.26;56.03;102827.03;5039992;28;45469;-54
2022/01/30 05:38:32;;;;;;;;;7.00;1.00;;;;;11.22;55.91;102828.91;5039312;28;45435;-52
2022/01/30 05:40:58;;;;;;;;;2.00;0.00;;;;;11.25;56.32;102834.22;5040125;28;46327;-52
2022/01/30 05:43:27;;;;;;;;;5.00;1.00;;;;;11.23;55.78;102840.50;5039431;28;45439;-53
2022/01/30 05:46:05;;;;;;;;;5.25;1.00;;;;;11.23;55.98;102827.97;5039778;28;45329;-55
2022/01/30 05:48:31;;;;;;;;;2.00;1.00;;;;;11.25;56.33;102830.63;5039607;28;45443;-55
2022/01/30 05:50:56;;;;;;;;;3.00;1.00;;;;;11.24;55.97;102839.59;5039696;28;47525;-55
2022/01/30 05:53:22;;;;;;;;;2.50;1.25;;;;;11.22;56.11;102842.34;5039621;28;45334;-53
2022/01/30 05:55:49;;;;;;;;;3.25;2.00;;;;;11.21;55.77;102835.19;5036861;28;45266;-53
2022/01/30 05:58:15;;;;;;;;;3.00;2.00;;;;;11.21;55.86;102836.97;5020946;28;45498;-54
2022/01/30 06:00:40;;;;;;;;;1.00;1.00;;;;;11.19;55.81;102836.13;5039845;28;46085;-56
2022/01/30 06:03:06;;;;;;;;;2.00;1.00;;;;;11.17;55.92;102838.81;5039735;28;45291;-56
2022/01/30 06:05:32;;;;;;;;;1.00;1.00;;;;;11.16;55.73;102844.19;5040055;28;45524;-53
2022/01/30 06:07:58;;;;;;;;;4.00;1.00;;;;;11.15;55.85;102847.78;5039548;28;45508;-53
2022/01/30 06:10:27;;;;;;;;;2.75;0.25;;;;;11.14;56.06;102835.31;5039756;28;46956;-53
2022/01/30 06:12:53;;;;;;;;;4.25;1.00;;;;;11.14;55.71;102838.00;5039310;28;45306;-52
2022/01/30 06:15:19;;;;;;;;;1.50;1.50;;;;;11.03;55.94;102827.41;5039642;28;45597;-53
2022/01/30 06:17:44;;;;;;;;;1.50;1.00;;;;;11.14;55.71;102836.19;5039649;28;45364;-52
2022/01/30 06:20:11;;;;;;;;;1.00;1.00;;;;;11.13;55.34;102842.47;5039506;28;46254;-52
2022/01/30 06:22:38;;;;;;;;;2.75;1.00;;;;;11.14;55.14;102862.16;5025383;28;45335;-54
2022/01/30 06:25:05;;;;;;;;;7.75;2.00;;;;;11.13;55.00;102861.25;5028486;28;45343;-55
2022/01/30 06:27:30;;;;;;;;;3.00;2.00;;;;;11.13;55.13;102868.44;5039485;28;45339;-56
2022/01/30 06:29:56;;;;;;;;;1.25;1.00;;;;;11.13;54.64;102865.75;5039075;28;45900;-56
2022/01/30 06:32:22;;;;;;;;;1.75;1.75;;;;;11.11;55.09;102865.75;5039095;28;45483;-54
2022/01/30 06:34:47;;;;;;;;;2.50;2.00;;;;;11.10;55.17;102865.78;5039534;28;45346;-53
2022/01/30 06:37:13;;;;;;;;;5.50;1.25;;;;;11.10;54.92;102866.66;5039222;28;46212;-52
2022/01/30 06:39:39;;;;;;;;;1.75;1.00;;;;;11.11;55.10;102873.81;5039406;28;47531;-52
2022/01/30 06:42:05;;;;;;;;;3.50;2.00;;;;;11.09;54.81;102851.47;5039088;28;45340;-50
2022/01/30 06:44:31;;;;;;;;;1.00;1.00;;;;;11.06;54.73;102859.53;5039251;28;45375;-55
2022/01/30 06:46:57;;;;;;;;;4.50;2.00;;;;;11.10;54.79;102871.16;5038999;28;45965;-55
2022/01/30 06:49:22;;;;;;;;;2.50;1.00;;;;;11.07;54.60;102860.44;5038807;28;46176;-54
2022/01/30 06:51:48;;;;;;;;;2.00;2.00;;;;;11.08;54.60;102868.47;5038980;28;45242;-56
2022/01/30 06:54:13;;;;;;;;;4.75;1.75;;;;;11.08;54.69;102867.59;5039232;28;45338;-55
2022/01/30 06:56:39;;;;;;;;;2.75;1.25;;;;;11.08;55.24;102867.59;5028850;28;45230;-53
2022/01/30 06:59:04;;;;;;;;;4.50;2.00;;;;;11.08;55.34;102871.16;5027269;28;45337;-52
2022/01/30 07:01:29;;;;;;;;;1.50;1.25;;;;;11.08;55.08;102872.94;5039132;28;45411;-54
2022/01/30 07:03:55;;;;;;;;;1.00;1.00;;;;;11.07;54.37;102868.50;5039243;28;45401;-54
2022/01/30 07:06:20;;;;;;;;;1.00;1.00;;;;;11.05;54.27;102868.53;5038925;28;45350;-53
2022/01/30 07:08:46;;;;;;;;;1.00;1.00;;;;;11.04;54.09;102866.75;5038725;28;45264;-54
2022/01/30 07:11:11;;;;;;;;;5.00;1.00;;;;;11.03;54.42;102869.47;5039039;28;45909;-52
2022/01/30 07:13:37;;;;;;;;;2.75;1.50;;;;;11.00;54.49;102882.00;5038840;28;45389;-55
2022/01/30 07:16:03;;;;;;;;;3.25;1.00;;;;;10.98;54.65;102869.50;5038828;28;45249;-52
2022/01/30 07:18:29;;;;;;;;;1.50;0.25;;;;;10.95;54.76;102875.81;5038649;28;46207;-51
2022/01/30 07:20:54;;;;;;;;;2.25;1.00;;;;;10.93;54.50;102874.94;5038672;28;45301;-54
2022/01/30 07:23:20;;;;;;;;;1.50;1.00;;;;;10.80;55.12;102865.28;5018919;28;45747;-53
2022/01/30 07:25:45;;;;;;;;;7.00;0.25;;;;;10.89;54.16;102888.41;5033434;28;45356;-55
2022/01/30 07:28:10;;;;;;;;;9.00;1.00;;;;;10.86;54.67;102889.38;5038346;28;45356;-53
2022/01/30 07:30:36;;;;;;;;;3.50;3.00;;;;;10.85;55.15;102901.00;5038853;28;45351;-52
2022/01/30 07:33:03;;;;;;;;;3.75;2.00;;;;;10.83;55.32;102900.13;5053139;28;45324;-54
2022/01/30 07:35:28;;;;;;;;;5.50;1.25;;;;;10.78;55.39;102902.00;5058737;28;45428;-53
2022/01/30 07:37:54;;;;;;;;;5.25;1.75;;;;;10.80;55.52;102915.38;5058794;28;47121;-53
2022/01/30 07:40:19;;;;;;;;;4.00;1.75;;;;;10.78;56.14;102917.19;5058683;28;45290;-55
2022/01/30 07:42:45;;;;;;;;;3.75;2.00;;;;;10.73;55.68;102917.22;5058942;28;45467;-55
2022/01/30 07:45:10;;;;;;;;;4.75;2.00;;;;;10.72;56.09;102920.81;5058375;28;45383;-56
2022/01/30 07:47:36;;;;;;;;;3.75;2.00;;;;;10.70;56.17;102917.28;5058388;28;47038;-59
2022/01/30 07:50:01;;;;;;;;;2.00;2.00;;;;;10.71;55.99;102912.81;5058315;28;45315;-54
2022/01/30 07:52:26;;;;;;;;;7.75;1.75;;;;;10.70;55.91;102919.09;5058886;28;45299;-57
2022/01/30 07:54:52;;;;;;;;;1.00;1.00;;;;;10.67;56.08;102921.78;5058393;28;45570;-56
2022/01/30 07:57:18;;;;;;;;;3.75;1.00;;;;;10.64;56.39;102936.13;5042876;28;45377;-58
2022/01/30 07:59:44;;;;;;;;;1.50;1.00;;;;;10.65;56.79;102935.22;5037976;28;45381;-53
2022/01/30 08:02:09;;;;;;;;;1.00;1.00;;;;;10.66;56.24;102942.38;5041579;28;45405;-56
2022/01/30 08:04:35;;;;;;;;;4.50;1.00;;;;;10.54;56.72;102921.94;5041404;28;45506;-56
2022/01/30 08:07:01;;;;;;;;;2.50;1.50;;;;;10.66;56.60;102945.03;5041144;28;45361;-56
2022/01/30 08:09:27;;;;;;;;;2.00;2.00;;;;;10.66;56.03;102947.72;5041661;28;45306;-56
2022/01/30 08:11:52;;;;;;;;;3.25;2.00;;;;;10.59;56.41;102936.19;5041722;28;45350;-63
2022/01/30 08:14:18;;;;;;;;;5.00;2.00;;;;;10.66;57.20;102938.78;5040954;28;45579;-55
2022/01/30 08:16:43;;;;;;;;;5.75;2.00;;;;;10.67;56.66;102948.63;5041443;28;45354;-56
2022/01/30 08:19:08;;;;;;;;;6.50;2.75;;;;;10.66;56.92;102947.72;5040930;28;45352;-58
2022/01/30 08:21:34;;;;;;;;;4.25;2.50;;;;;10.68;56.23;102945.03;5039720;28;45531;-57
2022/01/30 08:23:59;;;;;;;;;11.50;2.00;;;;;10.66;56.45;102946.84;5039932;28;45531;-54
2022/01/30 08:26:25;;;;;;;;;1.75;1.00;;;;;10.69;56.38;102944.13;5041484;28;45239;-55
2022/01/30 08:28:50;;;;;;;;;3.75;2.00;;;;;10.70;55.96;102952.16;5023164;28;45319;-57
2022/01/30 08:31:15;;;;;;;;;3.25;1.75;;;;;10.70;55.71;102945.91;5041549;28;45352;-55
2022/01/30 08:33:41;;;;;;;;;6.25;2.00;;;;;10.61;57.19;102929.03;5040601;28;45514;-60
2022/01/30 08:36:07;;;;;;;;;6.50;2.00;;;;;10.77;56.11;102940.44;5023217;28;47332;-59
2022/01/30 08:38:32;;;;;;;;;1.50;0.75;;;;;10.81;56.11;102942.19;5041070;28;45309;-60
2022/01/30 08:40:58;;;;;;;;;8.50;3.50;;;;;10.83;55.56;102931.44;5041184;28;45325;-60
2022/01/30 08:43:24;;;;;;;;;2.75;1.50;;;;;10.86;55.14;102940.34;5022731;28;46156;-58
2022/01/30 08:45:50;;;;;;;;;2.00;1.25;;;;;10.88;55.63;102935.84;5040687;28;46002;-58
2022/01/30 08:48:16;;;;;;;;;3.75;1.00;;;;;10.87;54.63;102934.06;5040562;28;45258;-56
2022/01/30 08:50:42;;;;;;;;;2.00;1.00;;;;;10.87;55.03;102936.75;5040944;28;45476;-56
2022/01/30 08:53:07;;;;;;;;;3.25;1.75;;;;;10.86;54.61;102943.03;5040912;28;45516;-54
2022/01/30 08:55:33;;;;;;;;;3.75;2.00;;;;;10.85;54.34;102940.34;5040924;28;46418;-56
2022/01/30 08:58:07;;;;;;;;;7.50;3.50;;;;;10.84;54.86;102934.09;5040564;28;45271;-56
2022/01/30 09:00:33;;;;;;;;;5.00;3.00;;;;;10.85;54.03;102937.69;5041221;28;45310;-52
2022/01/30 09:02:59;;;;;;;;;3.50;1.00;;;;;10.86;53.74;102944.81;5040631;28;45257;-55
2022/01/30 09:05:25;;;;;;;;;4.25;2.00;;;;;10.86;54.33;102945.72;5040497;28;46307;-55
2022/01/30 09:07:50;;;;;;;;;2.75;2.00;;;;;10.84;54.24;102942.16;5040134;28;45250;-55
2022/01/30 09:10:15;;;;;;;;;2.75;1.25;;;;;10.82;54.63;102946.63;5040793;28;45346;-59
2022/01/30 09:12:41;;;;;;;;;2.75;1.25;;;;;10.85;54.14;102951.97;5039283;28;45318;-55
2022/01/30 09:15:08;;;;;;;;;2.75;1.75;;;;;10.86;53.77;102942.13;5040465;28;45682;-61
2022/01/30 09:17:34;;;;;;;;;3.50;1.50;;;;;10.85;54.35;102938.56;5040463;28;45379;-60
2022/01/30 09:20:00;;;;;;;;;5.75;3.00;;;;;10.86;53.94;102944.81;5040322;28;45378;-60
2022/01/30 09:22:25;;;;;;;;;1.50;1.50;;;;;10.83;53.64;102952.91;5040283;28;45514;-58
2022/01/30 09:24:51;;;;;;;;;3.75;1.25;;;;;10.78;54.38;102944.91;5040336;28;45467;-59
2022/01/30 09:27:17;;;;;;;;;2.75;2.00;;;;;10.80;53.14;102948.44;5040507;28;45335;-59
2022/01/30 09:29:44;;;;;;;;;4.25;2.00;;;;;10.83;53.19;102956.47;5040400;28;45413;-59
2022/01/30 09:32:09;;;;;;;;;1.00;1.00;;;;;10.83;53.94;102956.47;5040333;28;45333;-60
2022/01/30 09:34:36;;;;;;;;;5.75;3.00;;;;;10.87;53.88;102954.66;5040060;28;46353;-60
2022/01/30 09:37:03;;;;;;;;;2.00;2.00;;;;;10.90;53.06;102962.66;5040444;28;45315;-60
2022/01/30 09:39:28;;;;;;;;;5.25;1.75;;;;;10.88;53.13;102954.63;5040215;28;45286;-59
2022/01/30 09:41:54;;;;;;;;;1.75;1.50;;;;;10.92;53.20;102961.72;5040300;28;45353;-59
2022/01/30 09:44:21;;;;;;;;;2.50;1.00;;;;;10.89;52.91;102959.06;5039954;28;45346;-60
2022/01/30 09:46:48;;;;;;;;;4.50;3.00;;;;;10.90;52.98;102955.50;5040069;28;45330;-61
2022/01/30 09:49:14;;;;;;;;;6.75;2.75;;;;;10.92;53.11;102960.84;5040234;28;45304;-60
2022/01/30 09:51:42;;;;;;;;;4.50;3.00;;;;;10.91;53.49;102953.69;5039894;28;45292;-60
2022/01/30 09:54:08;;;;;;;;;3.25;2.75;;;;;10.91;53.28;102965.31;5039507;28;46928;-60
2022/01/30 09:56:34;;;;;;;;;7.25;3.25;;;;;10.93;53.38;102957.25;5039583;28;45377;-59
2022/01/30 09:59:00;;;;;;;;;6.75;2.50;;;;;10.94;53.13;102956.34;5039622;28;45375;-60
2022/01/30 10:01:30;;;;;;;;;2.50;2.50;;;;;10.96;52.92;102963.50;5039330;28;45523;-60
2022/01/30 10:03:56;;;;;;;;;2.00;2.00;;;;;10.96;52.33;102968.84;5039430;28;47075;-59
2022/01/30 10:06:24;;;;;;;;;3.25;1.75;;;;;10.99;52.85;102962.53;5039072;28;45155;-59
2022/01/30 10:08:54;;;;;;;;;5.00;1.75;;;;;10.99;52.61;102955.38;5039732;28;45400;-60
2022/01/30 10:11:32;;;;;;;;;4.00;2.00;;;;;11.02;52.75;102958.94;5039692;28;45295;-60
2022/01/30 10:14:10;;;;;;;;;5.00;2.00;;;;;10.92;52.70;102932.22;5039320;28;46234;-60
2022/01/30 10:16:49;;;;;;;;;4.50;3.00;;;;;11.05;52.14;102967.84;5039437;28;45789;-60
2022/01/30 10:19:23;;;;;;;;;3.25;2.00;;;;;11.06;52.01;102960.69;5038875;28;45726;-60
2022/01/30 10:22:04;;;;;;;;;5.50;3.25;;;;;11.07;52.52;102963.31;5039135;28;45456;-60
2022/01/30 10:24:29;;;;;;;;;6.25;2.50;;;;;11.10;52.50;102962.41;5038488;28;46210;-60
2022/01/30 10:27:02;;;;;;;;;6.50;4.50;;;;;11.11;51.68;102967.78;5039270;28;45416;-60
2022/01/30 10:29:30;;;;;;;;;3.75;3.75;;;;;11.11;51.51;102958.81;5039093;28;45273;-60
2022/01/30 10:32:09;;;;;;;;;3.00;0.00;;;;;10.94;51.84;102927.72;5039035;28;45438;-59
2022/01/30 10:34:38;;;;;;;;;2.00;2.00;;;;;11.08;51.77;102954.38;5038995;28;47726;-59
2022/01/30 10:37:22;;;;;;;;;3.75;3.00;;;;;11.08;52.48;102954.38;5039163;28;45583;-59
2022/01/30 10:39:57;;;;;;;;;9.50;2.75;;;;;11.11;52.31;102951.66;5039256;28;45191;-60
2022/01/30 10:42:35;;;;;;;;;5.75;2.00;;;;;11.11;52.61;102945.41;5038809;28;45919;-60
2022/01/30 10:45:02;;;;;;;;;5.00;2.75;;;;;11.13;51.61;102946.28;5038740;28;45422;-60
2022/01/30 10:47:30;;;;;;;;;5.50;3.50;;;;;11.18;51.82;102953.34;5038671;28;45388;-59
2022/01/30 10:49:56;;;;;;;;;4.25;3.00;;;;;11.19;51.78;102946.19;5038822;28;45287;-60
2022/01/30 10:52:23;;;;;;;;;4.00;3.00;;;;;11.24;52.41;102950.56;5038793;28;45426;-60
2022/01/30 10:54:50;;;;;;;;;4.00;3.00;;;;;11.29;51.53;102942.47;5038917;28;46932;-60
2022/01/30 10:57:15;;;;;;;;;5.00;3.00;;;;;11.32;50.98;102950.47;5030464;28;45827;-59
2022/01/30 10:59:43;;;;;;;;;4.50;2.50;;;;;11.37;51.44;102948.63;5038601;28;45415;-61
2022/01/30 11:02:14;;;;;;;;;3.50;3.50;;;;;11.40;50.42;102956.63;5038530;28;45526;-60
2022/01/30 11:04:39;;;;;;;;;8.50;4.50;;;;;11.39;50.73;102938.75;5038411;28;46270;-59
2022/01/30 11:07:06;;;;;;;;;6.50;2.00;;;;;11.42;51.13;102938.69;5038457;28;45523;-60
2022/01/30 11:09:35;;;;;;;;;4.00;3.00;;;;;11.46;50.77;102929.69;5038681;28;45543;-61
2022/01/30 11:12:07;;;;;;;;;5.50;4.25;;;;;11.54;50.18;102941.22;5038723;28;45490;-61
2022/01/30 11:14:41;;;;;;;;;4.00;4.00;;;;;11.62;50.88;102941.97;5038314;28;46113;-59
2022/01/30 11:17:09;;;;;;;;;10.25;4.75;;;;;11.73;50.68;102937.34;5038703;28;45377;-60
2022/01/30 11:19:39;;;;;;;;;4.50;4.00;;;;;11.91;50.64;102930.78;5038257;28;45342;-59
2022/01/30 11:22:18;;;;;;;;;4.00;3.25;;;;;12.30;49.28;102931.91;5038456;28;45440;-58
2022/01/30 11:24:45;;;;;;;;;5.25;5.25;;;;;13.03;49.10;102930.44;5038464;28;45281;-60
2022/01/30 11:27:11;;;;;;;;;3.25;3.00;;;;;13.97;47.28;102917.47;5038522;28;45433;-59
2022/01/30 11:29:37;;;;;;;;;5.25;3.00;;;;;15.03;44.43;102919.09;5038235;28;45273;-59
2022/01/30 11:32:07;;;;;;;;;4.75;4.50;;;;;16.14;42.10;102917.34;5038236;28;46036;-59
2022/01/30 11:34:39;;;;;;;;;5.50;5.00;;;;;17.17;39.14;102901.81;5038194;28;45254;-59
2022/01/30 11:37:06;;;;;;;;;6.50;5.00;;;;;18.03;37.77;102891.94;5041249;28;45361;-59
2022/01/30 11:39:32;;;;;;;;;6.00;6.00;;;;;18.93;35.82;102893.34;5042168;28;45297;-60
2022/01/30 11:42:10;;;;;;;;;7.75;4.25;;;;;19.52;33.28;102890.50;5041312;28;45348;-60
2022/01/30 11:44:37;;;;;;;;;6.00;3.75;;;;;20.10;34.22;102887.56;5041653;28;46238;-59
2022/01/30 11:47:02;;;;;;;;;9.75;3.00;;;;;20.41;32.99;102882.31;5041689;28;45266;-60
2022/01/30 11:49:40;;;;;;;;;7.25;5.00;;;;;20.58;32.66;102874.13;5041860;28;45234;-60
2022/01/30 11:52:09;;;;;;;;;8.75;5.25;;;;;20.53;32.59;102868.00;5041635;28;45303;-60
2022/01/30 11:54:42;;;;;;;;;5.25;4.50;;;;;20.44;32.47;102860.31;5041618;28;46099;-60
2022/01/30 11:57:26;;;;;;;;;5.25;3.75;;;;;20.48;32.11;102866.50;5027440;28;45364;-60
2022/01/30 11:59:54;;;;;;;;;8.75;4.75;;;;;20.02;31.97;102872.50;5036668;28;45376;-60
2022/01/30 12:02:36;;;;;;;;;9.25;5.00;;;;;19.76;32.40;102863.91;5041508;28;45443;-59
2022/01/30 12:05:10;;;;;;;;;5.25;3.75;;;;;19.92;32.55;102871.19;5040951;28;45471;-60
2022/01/30 12:07:38;;;;;;;;;7.75;2.50;;;;;20.03;32.09;102863.38;5041378;28;45454;-60
2022/01/30 12:10:15;;;;;;;;;5.00;3.50;;;;;19.83;32.72;102865.34;5041397;28;45472;-60
2022/01/30 12:12:48;;;;;;;;;4.50;4.50;;;;;20.01;32.23;102859.84;5041105;28;45472;-60
2022/01/30 12:15:37;;;;;;;;;5.50;3.50;;;;;20.44;31.48;102868.50;5041324;28;46096;-60
2022/01/30 12:18:04;;;;;;;;;6.00;4.00;;;;;21.05;30.65;102854.22;5041124;28;45436;-60
2022/01/30 12:20:51;;;;;;;;;7.00;3.25;;;;;21.48;29.85;102848.09;5041201;28;45390;-60
2022/01/30 12:23:34;;;;;;;;;7.25;4.75;;;;;21.44;29.93;102840.16;5021347;28;45452;-60
2022/01/30 12:26:19;;;;;;;;;5.50;4.00;;;;;20.80;31.38;102832.91;5037969;28;46224;-62
2022/01/30 12:28:52;;;;;;;;;6.50;5.00;;;;;20.35;31.71;102834.47;5040736;28;45359;-62
2022/01/30 12:31:32;;;;;;;;;6.25;6.25;;;;;19.37;31.69;102823.22;5041065;28;45238;-61
2022/01/30 12:33:59;;;;;;;;;6.25;6.00;;;;;18.71;33.66;102811.94;5041095;28;45366;-58
2022/01/30 12:36:25;;;;;;;;;7.25;5.00;;;;;18.21;34.95;102814.22;5040743;28;46172;-57
2022/01/30 12:38:53;;;;;;;;;7.50;5.25;;;;;17.80;35.90;102816.94;5040541;28;45338;-58
2022/01/30 12:41:20;;;;;;;;;23.75;16.00;;;;;17.49;36.81;102809.19;5040921;28;45180;-59
2022/01/30 12:43:51;;;;;;;;;11.25;7.50;;;;;17.18;37.08;102806.84;5040545;28;45483;-58
2022/01/30 12:46:16;;;;;;;;;11.50;9.00;;;;;16.90;37.05;102804.38;5040283;28;46398;-58
2022/01/30 12:48:42;;;;;;;;;7.25;5.75;;;;;16.63;37.73;102791.91;5040558;28;45246;-58
2022/01/30 12:51:13;;;;;;;;;5.75;5.00;;;;;16.30;38.53;102785.94;5040896;28;45319;-55
2022/01/30 12:53:38;;;;;;;;;7.25;5.25;;;;;15.95;38.49;102789.91;5040420;28;46042;-57
2022/01/30 12:56:05;;;;;;;;;9.25;5.00;;;;;15.65;39.20;102794.56;5035122;28;46479;-57
2022/01/30 12:58:35;;;;;;;;;9.00;7.75;;;;;15.40;39.43;102791.78;5023990;28;45362;-58
2022/01/30 13:01:05;;;;;;;;;8.00;6.50;;;;;15.00;39.87;102770.59;5040582;28;45547;-56
2022/01/30 13:03:31;;;;;;;;;10.75;4.50;;;;;14.70;40.87;102761.66;5040433;28;45249;-56
2022/01/30 13:05:56;;;;;;;;;6.50;3.50;;;;;14.57;40.43;102762.94;5040273;28;45324;-56
2022/01/30 13:08:21;;;;;;;;;4.00;4.00;;;;;14.34;41.33;102754.63;5040400;28;45290;-56
2022/01/30 13:10:47;;;;;;;;;6.50;5.00;;;;;14.18;41.68;102748.81;5040778;28;45268;-58
2022/01/30 13:13:12;;;;;;;;;5.25;5.25;;;;;14.11;41.99;102747.22;5040213;28;45303;-59
2022/01/30 13:15:39;;;;;;;;;11.75;5.75;;;;;14.03;41.00;102751.94;5040391;28;46371;-57
2022/01/30 13:18:04;;;;;;;;;6.75;5.00;;;;;13.91;42.19;102739.69;5040203;28;45432;-52
2022/01/30 13:20:30;;;;;;;;;6.00;4.50;;;;;13.93;42.22;102736.94;5040316;28;45549;-55
2022/01/30 13:22:56;;;;;;;;;5.75;5.75;;;;;13.91;42.09;102733.41;5023523;28;45428;-53
2022/01/30 13:25:22;;;;;;;;;7.00;6.00;;;;;13.91;42.81;102730.72;5030863;28;45339;-52
2022/01/30 13:27:50;;;;;;;;;4.25;4.25;;;;;13.90;41.34;102720.84;5039693;28;45262;-50
2022/01/30 13:30:21;;;;;;;;;7.25;5.75;;;;;13.84;41.58;102705.72;5040296;28;45527;-51
2022/01/30 13:32:47;;;;;;;;;5.00;3.25;;;;;13.79;42.58;102710.34;5039801;28;46100;-52
2022/01/30 13:35:14;;;;;;;;;8.50;3.50;;;;;13.78;42.72;102708.56;5039989;28;45377;-51
2022/01/30 13:37:41;;;;;;;;;3.00;3.00;;;;;13.78;42.72;102703.19;5039968;28;45432;-51
2022/01/30 13:40:19;;;;;;;;;3.25;2.00;;;;;13.74;42.37;102690.75;5022564;28;45400;-51
2022/01/30 13:42:59;;;;;;;;;5.00;5.00;;;;;13.67;41.22;102690.97;5039725;28;45962;-51
2022/01/30 13:48:20;;;;;;;;;7.00;5.50;;;;;13.59;42.56;102683.09;5039819;28;45412;-51
2022/01/30 13:51:02;;;;;;;;;6.75;5.00;;;;;13.60;42.73;102682.16;5039672;28;45308;-53
2022/01/30 13:53:28;;;;;;;;;3.00;3.00;;;;;13.58;42.13;102667.84;5039757;28;45334;-52
2022/01/30 13:56:11;;;;;;;;;4.75;3.00;;;;;13.57;42.84;102658.88;5035821;28;47128;-53
2022/01/30 13:58:36;;;;;;;;;6.75;3.75;;;;;13.62;43.12;102656.03;5023510;28;45526;-54
2022/01/30 14:01:03;;;;;;;;;10.00;7.00;;;;;13.60;42.67;102649.81;5039913;28;45403;-53
2022/01/30 14:03:28;;;;;;;;;2.75;2.75;;;;;13.58;43.08;102649.84;5039639;28;45305;-53
2022/01/30 14:05:55;;;;;;;;;6.00;4.00;;;;;13.58;43.54;102644.47;5039649;28;46321;-52
2022/01/30 14:08:23;;;;;;;;;5.50;4.50;;;;;13.59;42.01;102648.06;5039493;28;45363;-51
2022/01/30 14:10:49;;;;;;;;;8.25;3.50;;;;;13.58;42.50;102638.19;5039683;28;45335;-50
2022/01/30 14:13:19;;;;;;;;;6.00;2.00;;;;;13.61;43.12;102628.19;5039196;28;45426;-54
2022/01/30 14:16:02;;;;;;;;;8.00;4.00;;;;;13.65;42.98;102626.31;5039271;28;46344;-50
2022/01/30 14:18:29;;;;;;;;;7.00;4.50;;;;;13.67;42.82;102626.28;5039447;28;45390;-51
2022/01/30 14:20:58;;;;;;;;;8.50;3.75;;;;;13.77;42.90;102627.78;5039092;28;45374;-53
2022/01/30 14:23:24;;;;;;;;;4.75;4.00;;;;;14.26;42.16;102625.34;5016523;28;46138;-55
2022/01/30 14:25:53;;;;;;;;;8.25;5.75;;;;;14.96;41.00;102614.09;5038923;28;46352;-51
2022/01/30 14:28:23;;;;;;;;;5.50;4.00;;;;;15.75;39.24;102601.31;5038885;28;45330;-50
2022/01/30 14:30:48;;;;;;;;;6.25;4.00;;;;;16.54;40.18;102595.44;5039202;28;45353;-51
2022/01/30 14:33:13;;;;;;;;;5.50;3.25;;;;;17.11;38.23;102602.06;5038846;28;45312;-49
2022/01/30 14:35:39;;;;;;;;;7.75;4.75;;;;;17.67;36.71;102594.16;5038851;28;45203;-52
2022/01/30 14:38:07;;;;;;;;;5.25;4.00;;;;;18.27;34.97;102594.03;5039237;28;45269;-53
2022/01/30 14:40:37;;;;;;;;;7.25;4.25;;;;;18.84;36.09;102599.31;5039116;28;45322;-54
2022/01/30 14:43:06;;;;;;;;;4.75;3.00;;;;;19.22;34.42;102591.84;5038752;28;45352;-53
2022/01/30 14:45:32;;;;;;;;;6.25;4.00;;;;;19.61;33.55;102594.34;5038830;28;45471;-54
2022/01/30 14:47:59;;;;;;;;;5.00;5.00;;;;;19.85;31.99;102583.94;5038942;28;45339;-52
2022/01/30 14:50:25;;;;;;;;;9.00;6.50;;;;;19.95;33.35;102589.75;5038766;28;45400;-52
2022/01/30 14:52:51;;;;;;;;;7.00;4.00;;;;;19.96;32.94;102586.94;5038510;28;45432;-52
2022/01/30 14:55:17;;;;;;;;;4.50;3.75;;;;;19.93;31.84;102588.94;5038479;28;45988;-51
2022/01/30 14:57:42;;;;;;;;;3.50;3.25;;;;;19.82;31.88;102580.53;5019645;28;45395;-53
2022/01/30 15:00:08;;;;;;;;;4.75;2.75;;;;;19.68;32.75;102584.00;5036058;28;45207;-51
2022/01/30 15:02:34;;;;;;;;;9.75;4.00;;;;;19.52;33.09;102580.34;5038717;28;45579;-52
2022/01/30 15:04:59;;;;;;;;;11.00;4.25;;;;;19.46;33.01;102581.53;5038466;28;46179;-50
2022/01/30 15:07:28;;;;;;;;;6.25;2.50;;;;;19.42;33.56;102579.94;5038585;28;45454;-52
2022/01/30 15:09:53;;;;;;;;;9.25;5.00;;;;;19.35;33.24;102580.34;5038261;28;45412;-51
2022/01/30 15:12:19;;;;;;;;;4.75;3.00;;;;;19.26;32.49;102576.28;5038370;28;45353;-51
2022/01/30 15:14:50;;;;;;;;;8.50;4.25;;;;;19.10;33.11;102573.50;5037885;28;45376;-52
2022/01/30 15:17:20;;;;;;;;;5.50;4.00;;;;;18.97;33.56;102575.06;5038512;28;45494;-52
2022/01/30 15:19:45;;;;;;;;;5.25;4.25;;;;;18.87;32.88;102571.97;5038280;28;45259;-51
2022/01/30 15:22:12;;;;;;;;;5.00;3.75;;;;;18.75;33.50;102571.72;5027924;28;45401;-53
2022/01/30 15:24:37;;;;;;;;;2.75;2.75;;;;;18.59;33.91;102570.75;5023693;28;45321;-51
2022/01/30 15:27:03;;;;;;;;;4.00;4.00;;;;;18.36;33.75;102577.28;5038494;28;45363;-51
2022/01/30 15:29:29;;;;;;;;;7.00;4.25;;;;;18.08;34.28;102570.50;5038086;28;45447;-52
2022/01/30 15:31:54;;;;;;;;;5.50;4.25;;;;;17.84;34.54;102562.63;5038217;28;45442;-51
2022/01/30 15:34:19;;;;;;;;;4.00;4.00;;;;;17.66;35.39;102561.66;5037879;28;45997;-54
2022/01/30 15:36:45;;;;;;;;;3.00;2.50;;;;;17.57;35.21;102560.22;5038499;28;45337;-53
2022/01/30 15:39:11;;;;;;;;;4.75;4.00;;;;;17.43;35.47;102545.56;5038261;28;45479;-53
2022/01/30 15:41:36;;;;;;;;;7.00;3.25;;;;;17.21;35.76;102532.06;5038477;28;45353;-53
2022/01/30 15:44:04;;;;;;;;;4.00;4.00;;;;;17.09;36.48;102543.50;5037857;28;45412;-53
2022/01/30 15:49:14;;;;;;;;;5.00;2.75;;;;;16.56;37.04;102542.13;5038225;28;45438;-54
2022/01/30 15:51:42;;;;;;;;;3.00;2.50;;;;;16.30;37.34;102545.03;5037902;28;45292;-54
2022/01/30 15:54:10;;;;;;;;;7.50;5.00;;;;;16.07;37.47;102532.44;5037684;28;46967;-50
2022/01/30 15:56:37;;;;;;;;;4.25;3.50;;;;;15.86;38.19;102533.28;5028870;28;45541;-52
2022/01/30 15:59:04;;;;;;;;;5.50;4.00;;;;;15.65;38.92;102521.47;5026554;28;45316;-53
2022/01/30 16:01:29;;;;;;;;;7.75;3.50;;;;;15.52;39.34;102512.94;5037925;28;45478;-52
2022/01/30 16:03:56;;;;;;;;;6.00;4.00;;;;;15.43;39.99;102513.28;5038028;28;46297;-51
2022/01/30 16:06:22;;;;;;;;;4.00;3.50;;;;;15.32;39.79;102507.38;5038087;28;45470;-62
2022/01/30 16:08:56;;;;;;;;;5.50;3.75;;;;;15.20;40.19;102504.28;5037670;28;45425;-61
2022/01/30 16:16:30;;;;;;;;;7.50;2.50;;;;;14.66;40.38;102484.59;5037888;28;45316;-61
2022/01/30 16:18:56;;;;;;;;;4.25;3.75;;;;;14.50;40.84;102502.28;5037875;28;45325;-60
2022/01/30 16:21:21;;;;;;;;;5.50;4.00;;;;;14.31;41.04;102499.28;5034294;28;45345;-61
2022/01/30 16:23:47;;;;;;;;;5.00;2.25;;;;;14.17;41.62;102496.16;5021212;28;46102;-61
2022/01/30 16:26:13;;;;;;;;;4.25;3.00;;;;;14.00;41.97;102493.13;5039331;28;45328;-60
2022/01/30 16:28:39;;;;;;;;;6.00;3.00;;;;;13.89;42.77;102495.28;5041032;28;45336;-61
2022/01/30 16:31:06;;;;;;;;;3.00;3.00;;;;;13.79;43.04;102489.28;5041089;28;45419;-61
2022/01/30 16:33:32;;;;;;;;;3.75;2.50;;;;;13.70;43.02;102494.97;5059390;28;47215;-60
2022/01/30 16:35:57;;;;;;;;;3.25;2.75;;;;;13.62;42.99;102494.31;5060924;28;45677;-53
2022/01/30 16:38:23;;;;;;;;;4.00;2.25;;;;;13.56;42.84;102489.13;5061278;28;45296;-56
2022/01/30 16:40:48;;;;;;;;;10.00;5.00;;;;;13.48;43.15;102491.19;5060817;28;45525;-54
2022/01/30 16:43:21;;;;;;;;;7.75;5.00;;;;;13.37;43.19;102479.84;5060729;28;46281;-53